Time;durP1;ratioP1;P1;durP2;ratioP2;P2;SDS_P1;SDS_P2;PMS_P1;PMS_P2;Temp;Humidity;BMP_temperature;BMP_pressure;BME280_temperature;BME280_humidity;BME280_pressure;Samples;Min_cycle;Max_cycle;Signal;HPM_P1;HPM_P2
2021/07/07 00:00:07;;;;;;;1.50;1.20;;;21.60;99.90;;;;;;4992807;28;20253;-72
2021/07/07 00:02:33;;;;;;;1.60;1.15;;;21.50;99.90;;;;;;4977754;28;20207;-72
2021/07/07 00:05:00;;;;;;;1.63;1.17;;;21.50;99.90;;;;;;4994881;28;20205;-72
2021/07/07 00:07:28;;;;;;;1.48;1.10;;;21.50;99.90;;;;;;4986528;28;20264;-72
2021/07/07 00:09:55;;;;;;;1.30;1.10;;;21.50;99.90;;;;;;4985723;28;20202;-71
2021/07/07 00:12:21;;;;;;;1.63;0.90;;;21.40;99.90;;;;;;4978491;28;20202;-72
2021/07/07 00:14:48;;;;;;;1.60;1.50;;;21.40;99.90;;;;;;4989629;28;20205;-72
2021/07/07 00:17:15;;;;;;;2.92;1.23;;;21.40;99.90;;;;;;4995391;28;20354;-72
2021/07/07 00:19:41;;;;;;;1.35;0.90;;;21.30;99.90;;;;;;4994984;28;20221;-72
2021/07/07 00:22:08;;;;;;;1.25;1.00;;;21.40;99.90;;;;;;4988066;28;20202;-72
2021/07/07 00:24:36;;;;;;;1.98;1.30;;;21.30;99.90;;;;;;4989771;28;20256;-72
2021/07/07 00:27:03;;;;;;;2.75;1.40;;;21.30;99.90;;;;;;4989436;28;20276;-72
2021/07/07 00:29:30;;;;;;;1.60;1.23;;;21.30;99.90;;;;;;4983428;28;20261;-72
2021/07/07 00:31:56;;;;;;;1.40;1.00;;;21.30;99.90;;;;;;4990451;28;20206;-72
2021/07/07 00:34:23;;;;;;;1.85;1.38;;;21.30;99.90;;;;;;4985973;28;20202;-72
2021/07/07 00:36:49;;;;;;;3.15;1.40;;;21.30;99.90;;;;;;4975371;28;20206;-72
2021/07/07 00:39:16;;;;;;;2.10;1.30;;;21.30;99.90;;;;;;4985548;28;20709;-72
2021/07/07 00:41:44;;;;;;;3.95;1.30;;;21.20;99.90;;;;;;4990254;28;20582;-72
2021/07/07 00:44:11;;;;;;;1.90;1.10;;;21.20;99.90;;;;;;4994165;28;20595;-72
2021/07/07 00:46:37;;;;;;;2.80;1.30;;;21.20;99.90;;;;;;4992870;28;20205;-71
2021/07/07 00:49:05;;;;;;;3.60;1.33;;;21.10;99.90;;;;;;4990348;28;20212;-72
2021/07/07 00:51:32;;;;;;;2.17;1.25;;;19.70;99.90;;;;;;4992767;28;20649;-72
2021/07/07 00:54:01;;;;;;;1.30;1.20;;;21.10;99.90;;;;;;4990317;28;20260;-72
2021/07/07 00:56:29;;;;;;;2.00;1.15;;;21.20;99.90;;;;;;4992982;28;20296;-72
2021/07/07 00:58:59;;;;;;;3.05;1.45;;;21.10;99.90;;;;;;4993740;28;20653;-72
2021/07/07 01:01:26;;;;;;;1.85;1.25;;;21.00;99.90;;;;;;4989055;28;20240;-72
2021/07/07 01:03:53;;;;;;;2.78;1.30;;;21.00;99.90;;;;;;4992023;28;20205;-72
2021/07/07 01:06:20;;;;;;;1.65;1.40;;;21.00;99.90;;;;;;4993264;28;20284;-72
2021/07/07 01:08:46;;;;;;;2.30;1.40;;;21.00;99.90;;;;;;4990475;28;20264;-73
2021/07/07 01:11:13;;;;;;;1.73;1.52;;;21.00;99.90;;;;;;4987354;28;20257;-72
2021/07/07 01:13:40;;;;;;;1.33;1.23;;;21.00;99.90;;;;;;4992506;28;20213;-72
2021/07/07 01:16:08;;;;;;;1.65;1.23;;;20.80;99.90;;;;;;4992918;28;20300;-73
2021/07/07 01:18:36;;;;;;;5.10;1.73;;;20.90;99.90;;;;;;4993036;28;20209;-73
2021/07/07 01:21:03;;;;;;;2.65;1.20;;;20.90;99.90;;;;;;4989277;28;20233;-72
2021/07/07 01:23:31;;;;;;;1.50;1.30;;;20.90;99.90;;;;;;4990388;28;20284;-72
2021/07/07 01:25:58;;;;;;;1.52;1.15;;;20.90;99.90;;;;;;4992221;28;20230;-72
2021/07/07 01:28:25;;;;;;;2.13;1.23;;;21.00;99.90;;;;;;4990151;28;20205;-72
2021/07/07 01:30:51;;;;;;;1.75;1.20;;;20.90;99.90;;;;;;4987269;28;20216;-72
2021/07/07 01:33:18;;;;;;;1.20;1.10;;;20.80;99.90;;;;;;4991444;28;20217;-72
2021/07/07 01:35:45;;;;;;;5.40;1.40;;;20.80;99.90;;;;;;4987799;28;20202;-73
2021/07/07 01:38:11;;;;;;;3.28;1.35;;;20.80;99.90;;;;;;4992858;28;20292;-72
2021/07/07 01:40:39;;;;;;;3.47;1.70;;;20.80;99.90;;;;;;4990691;28;20288;-73
2021/07/07 01:43:06;;;;;;;1.70;1.20;;;20.80;99.90;;;;;;4991275;28;20205;-72
2021/07/07 01:45:33;;;;;;;1.48;1.20;;;20.80;99.90;;;;;;4993931;28;20851;-72
2021/07/07 01:47:59;;;;;;;3.17;1.35;;;20.80;99.90;;;;;;4990976;28;20311;-72
2021/07/07 01:50:27;;;;;;;2.65;1.30;;;20.70;99.90;;;;;;4989507;28;20256;-72
2021/07/07 01:52:55;;;;;;;2.10;1.60;;;20.80;99.90;;;;;;4987159;28;21851;-72
2021/07/07 01:55:25;;;;;;;1.40;1.30;;;20.70;99.90;;;;;;4989479;28;20218;-71
2021/07/07 01:57:53;;;;;;;3.30;1.40;;;20.70;99.90;;;;;;4990907;28;20218;-72
2021/07/07 02:00:23;;;;;;;4.15;1.30;;;20.70;99.90;;;;;;4985032;28;20658;-72
2021/07/07 02:02:51;;;;;;;2.00;1.20;;;20.70;99.90;;;;;;4988448;28;20205;-72
2021/07/07 02:05:20;;;;;;;1.10;0.90;;;20.70;99.90;;;;;;4989736;28;20210;-72
2021/07/07 02:07:47;;;;;;;1.63;1.10;;;20.60;99.90;;;;;;4989538;28;20263;-73
2021/07/07 02:10:15;;;;;;;1.58;1.33;;;20.60;99.90;;;;;;4989231;28;20208;-72
2021/07/07 02:12:42;;;;;;;1.80;1.13;;;20.60;99.90;;;;;;4985935;28;20642;-72
2021/07/07 02:15:13;;;;;;;1.20;1.10;;;20.60;99.90;;;;;;4988960;28;20209;-72
2021/07/07 02:17:41;;;;;;;2.40;1.25;;;20.60;99.90;;;;;;4989462;28;20268;-72
2021/07/07 02:20:11;;;;;;;1.80;1.60;;;20.50;99.90;;;;;;4988410;28;20233;-72
2021/07/07 02:22:38;;;;;;;3.45;1.75;;;20.50;99.90;;;;;;4988164;28;20217;-72
2021/07/07 02:25:06;;;;;;;2.20;1.25;;;20.50;99.90;;;;;;4985577;28;20209;-72
2021/07/07 02:27:32;;;;;;;2.13;1.40;;;20.50;99.90;;;;;;4992957;28;20229;-72
2021/07/07 02:29:59;;;;;;;2.30;1.45;;;20.50;99.90;;;;;;4991223;28;20205;-72
2021/07/07 02:32:27;;;;;;;2.40;1.45;;;20.40;99.90;;;;;;4990607;28;20264;-71
2021/07/07 02:34:54;;;;;;;2.25;1.45;;;20.40;99.90;;;;;;4995019;28;20201;-72
2021/07/07 02:37:21;;;;;;;1.58;1.35;;;20.40;99.90;;;;;;4991503;28;20228;-72
2021/07/07 02:39:47;;;;;;;2.72;1.30;;;20.40;99.90;;;;;;4996521;28;20221;-72
2021/07/07 02:42:16;;;;;;;2.90;1.30;;;20.40;99.90;;;;;;4988150;28;20233;-72
2021/07/07 02:44:43;;;;;;;1.83;1.48;;;20.30;99.90;;;;;;4995758;28;20846;-72
2021/07/07 02:47:10;;;;;;;3.10;1.20;;;20.40;99.90;;;;;;4993878;28;20578;-72
2021/07/07 02:49:38;;;;;;;3.00;1.42;;;20.30;99.90;;;;;;4994763;28;20209;-72
2021/07/07 02:52:05;;;;;;;1.90;1.35;;;20.30;99.90;;;;;;4989452;28;20201;-71
2021/07/07 02:54:32;;;;;;;1.92;1.70;;;20.20;99.90;;;;;;4994997;28;20197;-71
2021/07/07 02:56:59;;;;;;;2.33;1.35;;;20.20;99.90;;;;;;4991981;28;20209;-71
2021/07/07 02:59:25;;;;;;;1.27;1.05;;;20.20;99.90;;;;;;4993236;28;20903;-71
2021/07/07 03:01:52;;;;;;;1.92;1.52;;;20.20;99.90;;;;;;4990974;28;20225;-71
2021/07/07 03:04:19;;;;;;;4.97;1.67;;;20.20;99.90;;;;;;4989814;28;20208;-71
2021/07/07 03:06:47;;;;;;;1.63;1.45;;;20.20;99.90;;;;;;4991541;28;20209;-71
2021/07/07 03:09:13;;;;;;;2.00;1.50;;;20.10;99.90;;;;;;4991426;28;20661;-72
2021/07/07 03:11:40;;;;;;;5.15;1.50;;;20.10;99.90;;;;;;4991156;28;20626;-72
2021/07/07 03:14:07;;;;;;;1.33;1.10;;;20.40;99.90;;;;;;4991209;28;20201;-72
2021/07/07 03:16:33;;;;;;;3.92;1.80;;;20.10;99.90;;;;;;4990610;28;20202;-72
2021/07/07 03:19:00;;;;;;;1.55;1.40;;;20.00;99.90;;;;;;4989171;28;20214;-72
2021/07/07 03:21:27;;;;;;;1.35;1.15;;;20.00;99.90;;;;;;4988574;28;20233;-72
2021/07/07 03:23:55;;;;;;;3.10;1.38;;;20.00;99.90;;;;;;4991035;28;20201;-73
2021/07/07 03:26:21;;;;;;;2.30;1.90;;;20.00;99.90;;;;;;4989747;28;20233;-72
2021/07/07 03:28:48;;;;;;;2.53;1.50;;;19.90;99.90;;;;;;4992216;28;20220;-72
2021/07/07 03:31:15;;;;;;;2.38;1.60;;;19.90;99.90;;;;;;4990633;28;20201;-72
2021/07/07 03:33:41;;;;;;;1.98;1.20;;;19.90;99.90;;;;;;4990284;28;20209;-72
2021/07/07 03:36:08;;;;;;;2.75;1.50;;;19.90;99.90;;;;;;4991476;28;20305;-72
2021/07/07 03:38:35;;;;;;;3.15;1.98;;;19.90;99.90;;;;;;4991680;28;20209;-73
2021/07/07 03:41:03;;;;;;;2.28;1.30;;;19.80;99.90;;;;;;4991287;28;20225;-73
2021/07/07 03:43:30;;;;;;;2.35;1.60;;;19.80;99.90;;;;;;4991885;28;20201;-72
2021/07/07 03:45:57;;;;;;;2.75;1.42;;;19.80;99.90;;;;;;4989282;28;20198;-72
2021/07/07 03:48:23;;;;;;;1.95;1.73;;;19.80;99.90;;;;;;4995977;28;20205;-72
2021/07/07 03:50:50;;;;;;;2.85;1.38;;;19.80;99.90;;;;;;4992104;28;20205;-73
2021/07/07 03:53:17;;;;;;;3.10;1.40;;;19.80;99.90;;;;;;4991333;28;20220;-72
2021/07/07 03:55:44;;;;;;;2.05;1.55;;;19.80;99.90;;;;;;4991738;28;20224;-72
2021/07/07 03:58:12;;;;;;;3.15;1.20;;;19.90;99.90;;;;;;4987663;28;20201;-71
2021/07/07 04:00:39;;;;;;;1.75;1.40;;;19.80;99.90;;;;;;4991197;28;20698;-71
2021/07/07 04:03:06;;;;;;;4.85;2.10;;;19.70;99.90;;;;;;4993563;28;20209;-71
2021/07/07 04:05:33;;;;;;;2.67;1.52;;;19.80;99.90;;;;;;4993690;28;20213;-72
2021/07/07 04:08:00;;;;;;;2.05;1.40;;;19.70;99.90;;;;;;4994006;28;20208;-71
2021/07/07 04:10:28;;;;;;;3.15;1.70;;;19.70;99.90;;;;;;4993536;28;20248;-71
2021/07/07 04:12:54;;;;;;;2.17;1.40;;;19.70;99.90;;;;;;4992047;28;20202;-72
2021/07/07 04:15:24;;;;;;;2.33;1.48;;;19.70;99.90;;;;;;4993555;28;20221;-72
2021/07/07 04:17:50;;;;;;;3.42;1.75;;;19.60;99.90;;;;;;4993770;28;20198;-71
2021/07/07 04:20:19;;;;;;;3.35;1.48;;;19.60;99.90;;;;;;4990992;28;20222;-72
2021/07/07 04:22:46;;;;;;;2.65;1.40;;;19.60;99.90;;;;;;4985003;28;20205;-71
2021/07/07 04:25:15;;;;;;;3.67;1.70;;;19.60;99.90;;;;;;4993159;28;20218;-72
2021/07/07 04:27:42;;;;;;;2.15;1.70;;;19.70;99.90;;;;;;4990136;28;20283;-72
2021/07/07 04:30:11;;;;;;;3.78;1.60;;;19.60;99.90;;;;;;4988221;28;20202;-72
2021/07/07 04:32:39;;;;;;;3.85;1.80;;;19.70;99.90;;;;;;4988500;28;20642;-72
2021/07/07 04:35:07;;;;;;;1.67;1.55;;;19.60;99.90;;;;;;4990283;28;20208;-72
2021/07/07 04:37:34;;;;;;;3.05;1.50;;;19.60;99.90;;;;;;4989358;28;20212;-72
2021/07/07 04:40:01;;;;;;;1.48;1.38;;;19.60;99.90;;;;;;4990822;28;20205;-72
2021/07/07 04:42:27;;;;;;;3.55;1.33;;;19.60;99.90;;;;;;4979825;28;20569;-71
2021/07/07 04:44:54;;;;;;;2.97;1.63;;;19.70;99.90;;;;;;4989283;28;20202;-72
2021/07/07 04:47:21;;;;;;;1.50;1.10;;;19.70;99.90;;;;;;4991630;28;20216;-72
2021/07/07 04:49:49;;;;;;;2.22;1.20;;;20.90;99.90;;;;;;4990036;28;20213;-72
2021/07/07 04:52:15;;;;;;;1.95;1.35;;;19.70;99.90;;;;;;4987763;28;20204;-72
2021/07/07 04:54:42;;;;;;;2.20;1.50;;;19.70;99.90;;;;;;4990249;28;20564;-71
2021/07/07 04:57:09;;;;;;;2.63;1.63;;;19.70;99.90;;;;;;4990896;28;20543;-72
2021/07/07 04:59:35;;;;;;;1.75;1.50;;;19.70;99.90;;;;;;4993852;28;20558;-71
2021/07/07 05:02:02;;;;;;;2.05;1.17;;;19.60;99.90;;;;;;4991068;28;20618;-72
2021/07/07 05:04:29;;;;;;;2.97;1.50;;;19.70;99.90;;;;;;4991942;28;20209;-71
2021/07/07 05:06:57;;;;;;;1.77;1.50;;;19.70;99.90;;;;;;4985727;28;20198;-72
2021/07/07 05:09:23;;;;;;;1.95;1.70;;;19.70;99.90;;;;;;4987609;28;20631;-71
2021/07/07 05:11:50;;;;;;;4.15;1.67;;;19.80;99.90;;;;;;4990234;28;20220;-71
2021/07/07 05:14:17;;;;;;;2.20;1.30;;;19.70;99.90;;;;;;4993865;28;20202;-71
2021/07/07 05:16:44;;;;;;;1.50;1.30;;;19.70;99.90;;;;;;4990125;28;20199;-71
2021/07/07 05:19:11;;;;;;;1.85;1.27;;;19.70;99.90;;;;;;4984953;28;20201;-71
2021/07/07 05:21:38;;;;;;;1.75;1.40;;;19.70;99.90;;;;;;4990092;28;20225;-73
2021/07/07 05:24:06;;;;;;;1.90;1.40;;;19.80;99.90;;;;;;4991013;28;20219;-72
2021/07/07 05:26:34;;;;;;;4.00;1.45;;;19.70;99.90;;;;;;4977737;28;20245;-72
2021/07/07 05:29:01;;;;;;;1.65;1.40;;;19.60;99.90;;;;;;4981855;28;20208;-72
2021/07/07 05:31:27;;;;;;;2.90;1.40;;;19.70;99.90;;;;;;4990800;28;21968;-72
2021/07/07 05:33:54;;;;;;;4.20;2.13;;;19.60;99.90;;;;;;4990341;28;20201;-72
2021/07/07 05:36:21;;;;;;;2.15;1.95;;;20.20;99.90;;;;;;4990711;28;20638;-72
2021/07/07 05:38:47;;;;;;;2.13;1.52;;;19.80;99.90;;;;;;4988960;28;20638;-72
2021/07/07 05:41:15;;;;;;;2.72;1.20;;;20.00;99.90;;;;;;4987141;28;20569;-72
2021/07/07 05:43:42;;;;;;;1.73;1.30;;;20.20;99.90;;;;;;4990347;28;20686;-73
2021/07/07 05:46:09;;;;;;;2.60;1.20;;;20.40;99.90;;;;;;4990058;28;20209;-72
2021/07/07 05:48:35;;;;;;;6.78;1.80;;;20.70;99.90;;;;;;4989422;28;20661;-73
2021/07/07 05:51:04;;;;;;;2.95;1.38;;;20.90;99.90;;;;;;4986284;28;20209;-72
2021/07/07 05:53:31;;;;;;;1.50;0.90;;;21.10;99.90;;;;;;4988993;28;20232;-72
2021/07/07 05:55:57;;;;;;;3.38;1.30;;;21.30;99.90;;;;;;4987107;28;20206;-72
2021/07/07 05:58:25;;;;;;;1.50;1.10;;;21.40;99.90;;;;;;4989262;28;20209;-72
2021/07/07 06:00:52;;;;;;;1.42;1.00;;;21.60;99.90;;;;;;4989302;28;20225;-72
2021/07/07 06:03:19;;;;;;;2.33;1.45;;;21.80;99.90;;;;;;4987264;28;20201;-72
2021/07/07 06:05:45;;;;;;;2.50;1.50;;;21.80;99.90;;;;;;4988415;28;20206;-72
2021/07/07 06:08:12;;;;;;;2.33;1.23;;;22.10;99.90;;;;;;4987097;28;20209;-72
2021/07/07 06:10:40;;;;;;;2.47;1.63;;;22.10;99.90;;;;;;4987734;28;20212;-72
2021/07/07 06:13:07;;;;;;;2.17;1.20;;;22.30;99.90;;;;;;4988957;28;20542;-72
2021/07/07 06:15:37;;;;;;;2.55;1.73;;;22.50;99.90;;;;;;4990596;28;20483;-72
2021/07/07 06:18:04;;;;;;;1.80;1.23;;;22.50;99.90;;;;;;4991581;28;20871;-72
2021/07/07 06:20:31;;;;;;;1.93;1.30;;;22.60;99.90;;;;;;4991709;28;20445;-71
2021/07/07 06:22:58;;;;;;;1.20;0.90;;;22.60;99.90;;;;;;4987420;28;20481;-73
2021/07/07 06:25:25;;;;;;;2.80;1.30;;;22.80;99.90;;;;;;4978172;28;20937;-72
2021/07/07 06:27:52;;;;;;;2.20;1.10;;;22.90;99.90;;;;;;4982256;28;20499;-72
2021/07/07 06:30:21;;;;;;;3.60;1.40;;;23.00;99.90;;;;;;4988772;28;20468;-72
2021/07/07 06:32:50;;;;;;;2.03;1.40;;;23.10;99.90;;;;;;4985229;28;20463;-72
2021/07/07 06:35:19;;;;;;;3.87;1.50;;;23.10;99.90;;;;;;4990947;28;20452;-72
2021/07/07 06:37:46;;;;;;;1.80;1.13;;;23.30;99.90;;;;;;4990719;28;20794;-73
2021/07/07 06:40:15;;;;;;;1.60;1.50;;;23.30;99.90;;;;;;4989239;28;20991;-72
2021/07/07 06:42:42;;;;;;;2.70;1.10;;;23.40;99.90;;;;;;4985400;28;20542;-72
2021/07/07 06:45:11;;;;;;;4.33;1.30;;;23.20;99.90;;;;;;4987013;28;20477;-73
2021/07/07 06:47:38;;;;;;;2.50;1.40;;;23.00;99.90;;;;;;4988013;28;20452;-73
2021/07/07 06:50:08;;;;;;;3.67;1.37;;;22.80;99.90;;;;;;4987012;28;20806;-72
2021/07/07 06:52:35;;;;;;;2.20;1.47;;;22.70;99.90;;;;;;4984911;28;20449;-73
2021/07/07 06:55:03;;;;;;;2.60;1.33;;;22.70;99.90;;;;;;4986730;28;20460;-73
2021/07/07 06:57:34;;;;;;;2.43;1.10;;;22.80;99.90;;;;;;4985589;28;20471;-73
2021/07/07 07:00:01;;;;;;;1.20;1.10;;;23.00;99.90;;;;;;4987557;28;20456;-73
2021/07/07 07:02:30;;;;;;;1.63;1.10;;;23.10;99.90;;;;;;4984353;28;20497;-73
2021/07/07 07:04:57;;;;;;;2.07;1.40;;;23.30;99.90;;;;;;4983712;28;20548;-73
2021/07/07 07:07:25;;;;;;;1.93;1.33;;;23.50;99.90;;;;;;4984927;28;20469;-72
2021/07/07 07:09:52;;;;;;;4.93;1.10;;;23.70;99.90;;;;;;4987851;28;20472;-72
2021/07/07 07:12:18;;;;;;;2.03;1.20;;;23.90;99.90;;;;;;4988225;28;20452;-72
2021/07/07 07:14:45;;;;;;;1.60;1.10;;;24.00;99.90;;;;;;4985151;28;20460;-73
2021/07/07 07:17:12;;;;;;;2.43;1.67;;;24.10;99.90;;;;;;4985714;28;20549;-73
2021/07/07 07:19:38;;;;;;;1.40;1.27;;;24.20;99.90;;;;;;4990895;28;20479;-72
2021/07/07 07:22:05;;;;;;;1.30;1.10;;;24.30;99.90;;;;;;4989146;28;20473;-72
2021/07/07 07:24:33;;;;;;;3.73;1.30;;;24.40;99.90;;;;;;4988157;28;20845;-73
2021/07/07 07:27:00;;;;;;;3.37;1.17;;;24.60;99.90;;;;;;4990580;28;20499;-73
2021/07/07 07:29:26;;;;;;;2.23;1.40;;;24.30;99.90;;;;;;4994485;28;20464;-73
2021/07/07 07:31:53;;;;;;;1.20;0.93;;;24.10;99.90;;;;;;4993366;28;20467;-73
2021/07/07 07:34:20;;;;;;;6.43;1.27;;;24.10;99.90;;;;;;4993423;28;20464;-74
2021/07/07 07:36:49;;;;;;;2.80;1.50;;;23.80;99.90;;;;;;4994460;28;20460;-73
2021/07/07 07:39:20;;;;;;;2.80;1.10;;;23.60;99.90;;;;;;4995373;28;21004;-72
2021/07/07 07:41:48;;;;;;;3.00;1.10;;;23.60;99.90;;;;;;4995599;28;20865;-72
2021/07/07 07:44:15;;;;;;;1.50;1.03;;;23.40;99.90;;;;;;4987515;28;20446;-72
2021/07/07 07:46:42;;;;;;;1.30;1.00;;;23.40;99.90;;;;;;4989759;28;20479;-72
2021/07/07 07:49:11;;;;;;;3.20;1.90;;;23.30;99.90;;;;;;4992111;28;20456;-73
2021/07/07 07:51:38;;;;;;;4.30;1.47;;;23.20;99.90;;;;;;4992513;28;20547;-73
2021/07/07 07:54:04;;;;;;;1.70;1.00;;;23.00;99.90;;;;;;4991727;28;20494;-73
2021/07/07 07:56:31;;;;;;;1.93;1.30;;;23.10;99.90;;;;;;4995583;28;20471;-73
2021/07/07 07:58:59;;;;;;;1.87;0.97;;;23.20;99.90;;;;;;4994229;28;20452;-73
2021/07/07 08:01:26;;;;;;;1.63;1.00;;;23.10;99.90;;;;;;4995443;28;20507;-73
2021/07/07 08:03:53;;;;;;;3.00;1.20;;;23.20;99.90;;;;;;4990145;28;20460;-73
2021/07/07 08:06:20;;;;;;;2.50;1.47;;;23.30;99.90;;;;;;4990717;28;20921;-73
2021/07/07 08:08:46;;;;;;;3.53;1.20;;;23.50;99.90;;;;;;4990447;28;20463;-73
2021/07/07 08:11:13;;;;;;;1.47;1.30;;;23.70;99.90;;;;;;4992281;28;20471;-73
2021/07/07 08:13:41;;;;;;;2.70;1.40;;;23.80;99.90;;;;;;4992266;28;20468;-73
2021/07/07 08:16:09;;;;;;;1.60;1.03;;;24.00;99.90;;;;;;4992641;28;20465;-73
2021/07/07 08:18:35;;;;;;;2.70;1.20;;;24.10;99.90;;;;;;4991089;28;20461;-73
2021/07/07 08:21:03;;;;;;;2.90;1.00;;;24.10;99.90;;;;;;4989917;28;20456;-73
2021/07/07 08:23:29;;;;;;;2.40;1.37;;;24.30;99.90;;;;;;4990555;28;20492;-73
2021/07/07 08:25:56;;;;;;;2.70;1.10;;;24.30;99.90;;;;;;4989014;28;20480;-72
2021/07/07 08:28:23;;;;;;;5.90;1.93;;;24.30;99.90;;;;;;4990941;28;20956;-72
2021/07/07 08:30:49;;;;;;;1.80;1.20;;;24.30;99.90;;;;;;4990820;28;20452;-72
2021/07/07 08:33:17;;;;;;;1.50;1.00;;;24.30;99.90;;;;;;4992116;28;20626;-74
2021/07/07 08:35:44;;;;;;;4.00;1.73;;;24.30;99.90;;;;;;4989845;28;20460;-73
2021/07/07 08:38:11;;;;;;;2.17;0.90;;;24.20;99.90;;;;;;4989598;28;20940;-74
2021/07/07 08:40:38;;;;;;;1.70;1.33;;;24.10;99.90;;;;;;4988538;28;20472;-73
2021/07/07 08:43:05;;;;;;;3.43;2.67;;;24.10;99.90;;;;;;4988930;28;20714;-73
2021/07/07 08:45:32;;;;;;;3.60;1.60;;;24.10;99.90;;;;;;4991119;28;20471;-74
2021/07/07 08:48:00;;;;;;;1.67;1.27;;;24.20;99.90;;;;;;4992737;28;20460;-73
2021/07/07 08:50:29;;;;;;;1.47;1.23;;;24.30;99.90;;;;;;4989369;28;20926;-74
2021/07/07 08:52:59;;;;;;;1.67;1.23;;;24.30;99.90;;;;;;4988675;28;20461;-74
2021/07/07 08:55:25;;;;;;;3.30;1.60;;;24.30;99.90;;;;;;4986745;28;20464;-73
2021/07/07 08:57:53;;;;;;;1.60;1.20;;;24.40;99.90;;;;;;4991902;28;20456;-74
2021/07/07 09:00:23;;;;;;;3.93;1.30;;;24.50;99.90;;;;;;4992106;28;20465;-74
2021/07/07 09:02:52;;;;;;;2.80;1.17;;;24.40;99.90;;;;;;4992323;28;20965;-74
2021/07/07 09:05:19;;;;;;;2.80;1.20;;;24.40;99.90;;;;;;4992973;28;20461;-74
2021/07/07 09:07:47;;;;;;;2.60;1.00;;;24.50;99.90;;;;;;4993233;28;20457;-74
2021/07/07 09:10:26;;;;;;;2.50;1.33;;;24.30;99.90;;;;;;4990012;28;20460;-74
2021/07/07 09:12:53;;;;;;;4.17;1.43;;;24.30;99.90;;;;;;4988779;28;20453;-73
2021/07/07 09:15:19;;;;;;;2.50;1.00;;;24.20;99.90;;;;;;4989919;28;20465;-73
2021/07/07 09:17:49;;;;;;;1.60;1.47;;;24.20;99.90;;;;;;4990278;28;20464;-73
2021/07/07 09:20:21;;;;;;;2.90;1.30;;;24.20;99.90;;;;;;4990393;28;20523;-74
2021/07/07 09:22:52;;;;;;;2.37;1.67;;;24.20;99.90;;;;;;4990653;28;20475;-74
2021/07/07 09:25:28;;;;;;;2.07;1.00;;;24.10;99.90;;;;;;4987263;28;20464;-71
2021/07/07 09:27:55;;;;;;;4.93;1.90;;;24.10;99.90;;;;;;4988454;28;20492;-73
2021/07/07 09:30:22;;;;;;;2.70;1.50;;;24.20;99.90;;;;;;4989184;28;20464;-74
2021/07/07 09:32:51;;;;;;;3.23;1.40;;;24.20;99.90;;;;;;4990215;28;20905;-74
2021/07/07 09:35:19;;;;;;;1.40;1.30;;;24.20;99.90;;;;;;4988101;28;20469;-73
2021/07/07 09:37:50;;;;;;;1.83;1.63;;;24.30;99.90;;;;;;4987455;28;20524;-74
2021/07/07 09:40:18;;;;;;;1.83;1.10;;;24.30;99.90;;;;;;4986859;28;20526;-73
2021/07/07 09:42:46;;;;;;;5.87;1.57;;;24.20;99.90;;;;;;4987982;28;20485;-73
2021/07/07 09:45:16;;;;;;;2.40;1.00;;;24.30;99.90;;;;;;4987964;28;20771;-73
2021/07/07 09:47:43;;;;;;;2.10;1.40;;;24.20;99.90;;;;;;4988400;28;20460;-71
2021/07/07 09:50:11;;;;;;;4.80;1.90;;;24.10;99.90;;;;;;4989935;28;20657;-73
2021/07/07 09:52:38;;;;;;;1.90;1.20;;;24.10;99.90;;;;;;4992409;28;20472;-73
2021/07/07 09:55:08;;;;;;;2.80;1.40;;;24.00;99.90;;;;;;4991020;28;20491;-74
2021/07/07 09:57:44;;;;;;;3.17;1.27;;;24.00;99.90;;;;;;4991172;28;20551;-73
2021/07/07 10:00:13;;;;;;;2.83;1.50;;;24.10;99.90;;;;;;4988907;28;20464;-73
2021/07/07 10:02:41;;;;;;;2.10;1.30;;;24.00;99.90;;;;;;4990619;28;20476;-73
2021/07/07 10:05:10;;;;;;;3.00;1.30;;;24.00;99.90;;;;;;4991172;28;20492;-74
2021/07/07 10:07:37;;;;;;;1.20;1.10;;;24.10;99.90;;;;;;4991233;28;20464;-73
2021/07/07 10:10:05;;;;;;;1.97;1.07;;;24.10;99.90;;;;;;4992576;28;20441;-73
2021/07/07 10:12:32;;;;;;;1.80;1.23;;;24.20;99.90;;;;;;4990919;28;20459;-74
2021/07/07 10:15:01;;;;;;;1.63;1.37;;;24.30;99.90;;;;;;4989564;28;20901;-74
2021/07/07 10:17:28;;;;;;;5.83;1.77;;;24.30;99.90;;;;;;4988564;28;20460;-74
2021/07/07 10:19:56;;;;;;;1.40;1.20;;;24.40;99.90;;;;;;4990353;28;20475;-73
2021/07/07 10:22:23;;;;;;;1.70;1.00;;;24.40;99.90;;;;;;4988684;28;20813;-73
2021/07/07 10:24:50;;;;;;;2.80;1.33;;;24.40;99.90;;;;;;4986214;28;20468;-72
2021/07/07 10:27:17;;;;;;;3.10;1.43;;;24.40;99.90;;;;;;4986527;28;20502;-77
2021/07/07 10:29:46;;;;;;;3.70;1.53;;;24.00;99.90;;;;;;4986825;28;20464;-73
2021/07/07 10:32:16;;;;;;;2.90;1.00;;;24.30;99.90;;;;;;4986265;28;20548;-73
2021/07/07 10:34:43;;;;;;;1.90;1.40;;;24.30;99.90;;;;;;4985627;28;20782;-72
2021/07/07 10:37:09;;;;;;;2.70;1.20;;;24.30;99.90;;;;;;4985476;28;20868;-74
2021/07/07 10:39:36;;;;;;;3.57;1.40;;;24.30;99.90;;;;;;4989476;28;20445;-73
2021/07/07 10:42:04;;;;;;;2.10;1.47;;;24.30;99.90;;;;;;4982064;28;20444;-73
2021/07/07 10:44:49;;;;;;;1.80;1.47;;;24.40;99.90;;;;;;4993077;28;20441;-73
2021/07/07 10:47:17;;;;;;;2.13;1.17;;;24.40;99.90;;;;;;4990374;28;20480;-75
2021/07/07 10:49:47;;;;;;;2.20;1.10;;;24.50;99.90;;;;;;4993164;28;20440;-76
2021/07/07 10:52:19;;;;;;;5.10;1.90;;;24.40;99.90;;;;;;4987702;28;20441;-73
2021/07/07 10:54:55;;;;;;;2.57;1.60;;;24.40;99.90;;;;;;4993508;28;20942;-75
2021/07/07 10:57:24;;;;;;;1.87;1.00;;;24.40;99.90;;;;;;4980341;28;20445;-77
2021/07/07 10:59:54;;;;;;;2.80;1.27;;;24.40;99.90;;;;;;4981653;28;20786;-76
2021/07/07 11:02:24;;;;;;;2.80;1.30;;;24.50;99.90;;;;;;5006428;28;20455;-75
2021/07/07 11:04:52;;;;;;;5.70;1.20;;;24.60;99.90;;;;;;4996356;28;20468;-77
2021/07/07 11:07:34;;;;;;;2.57;1.33;;;24.60;99.90;;;;;;4976656;28;20456;-77
2021/07/07 11:10:02;;;;;;;3.10;1.53;;;24.60;99.90;;;;;;4975977;28;20452;-77
2021/07/07 11:13:06;;;;;;;2.50;1.23;;;24.60;99.90;;;;;;4978408;28;20452;-76
2021/07/07 11:15:36;;;;;;;3.30;1.40;;;24.60;99.90;;;;;;4994365;28;20459;-77
2021/07/07 11:18:04;;;;;;;3.33;1.50;;;24.70;99.90;;;;;;4995730;28;20569;-77
2021/07/07 11:20:33;;;;;;;1.40;1.10;;;24.60;99.90;;;;;;4993635;28;20449;-76
2021/07/07 11:23:02;;;;;;;2.33;1.57;;;24.60;99.90;;;;;;4986003;28;20484;-77
2021/07/07 11:25:31;;;;;;;2.60;1.40;;;24.60;99.90;;;;;;4983657;28;20456;-76
2021/07/07 11:27:58;;;;;;;1.73;1.20;;;24.60;99.90;;;;;;4994854;28;20476;-73
2021/07/07 11:30:25;;;;;;;2.13;1.30;;;24.50;99.90;;;;;;4993945;28;20942;-75
2021/07/07 11:32:54;;;;;;;2.80;1.57;;;24.50;99.90;;;;;;4994931;28;20746;-76
2021/07/07 11:35:28;;;;;;;2.03;1.13;;;24.50;99.90;;;;;;4992597;28;20467;-74
2021/07/07 11:37:55;;;;;;;3.20;1.20;;;24.50;99.90;;;;;;4999392;28;20534;-76
2021/07/07 11:40:23;;;;;;;2.73;1.43;;;24.50;99.90;;;;;;4993591;28;20448;-76
2021/07/07 11:43:01;;;;;;;2.67;1.20;;;24.60;99.90;;;;;;5001180;28;20483;-75
2021/07/07 11:45:32;;;;;;;2.67;1.50;;;24.60;99.80;;;;;;4991160;28;20448;-76
2021/07/07 11:48:04;;;;;;;2.30;1.30;;;24.60;99.80;;;;;;4991055;28;20460;-75
2021/07/07 11:50:32;;;;;;;2.30;1.50;;;24.60;99.50;;;;;;4994657;28;20456;-75
2021/07/07 11:53:01;;;;;;;2.17;1.13;;;24.60;99.70;;;;;;4977216;28;20445;-75
2021/07/07 11:55:59;;;;;;;9.30;1.27;;;24.60;99.90;;;;;;4982619;28;20457;-75
2021/07/07 11:58:37;;;;;;;2.17;1.20;;;24.60;99.60;;;;;;4968234;28;20445;-76
2021/07/07 12:01:07;;;;;;;2.80;2.07;;;24.60;99.30;;;;;;4975921;28;20559;-76
2021/07/07 12:03:34;;;;;;;5.03;1.50;;;24.60;99.40;;;;;;4982599;28;20478;-75
2021/07/07 12:06:05;;;;;;;2.40;1.53;;;24.60;99.20;;;;;;4994441;28;20451;-75
2021/07/07 12:08:34;;;;;;;1.57;1.07;;;24.60;99.00;;;;;;4979733;28;21635;-75
2021/07/07 12:11:09;;;;;;;7.40;1.40;;;24.60;98.60;;;;;;4984060;28;20445;-76
2021/07/07 12:13:37;;;;;;;1.50;1.00;;;24.50;98.30;;;;;;4983429;28;20754;-75
2021/07/07 12:16:32;;;;;;;1.60;1.33;;;24.50;98.60;;;;;;4991414;28;20464;-76
2021/07/07 12:19:02;;;;;;;3.63;1.73;;;24.50;98.70;;;;;;4979004;28;20556;-76
2021/07/07 12:21:36;;;;;;;2.93;1.50;;;24.60;98.80;;;;;;4985324;28;20456;-76
2021/07/07 12:24:06;;;;;;;2.10;1.20;;;24.50;98.80;;;;;;4994243;28;21048;-74
2021/07/07 12:26:35;;;;;;;3.60;1.60;;;24.50;98.70;;;;;;4994868;28;20787;-76
2021/07/07 12:29:02;;;;;;;2.83;1.23;;;24.50;98.50;;;;;;4994538;28;20460;-75
2021/07/07 12:31:31;;;;;;;1.60;1.20;;;24.50;98.40;;;;;;4994432;28;20452;-76
2021/07/07 12:33:58;;;;;;;1.50;1.27;;;24.50;98.50;;;;;;4994335;28;20456;-75
2021/07/07 12:36:28;;;;;;;3.87;1.43;;;24.50;98.50;;;;;;4989140;28;20687;-75
2021/07/07 12:38:57;;;;;;;1.63;1.30;;;24.50;99.20;;;;;;4992382;28;20484;-75
2021/07/07 12:41:33;;;;;;;2.13;1.30;;;24.50;98.80;;;;;;4977446;28;20453;-76
2021/07/07 12:44:09;;;;;;;4.00;1.20;;;24.50;98.90;;;;;;4980933;28;20480;-75
2021/07/07 12:46:46;;;;;;;1.87;1.17;;;24.50;99.20;;;;;;4979221;28;20481;-74
2021/07/07 12:49:13;;;;;;;2.03;1.33;;;24.50;99.50;;;;;;4988960;28;20487;-75
2021/07/07 12:51:39;;;;;;;3.40;1.30;;;24.60;99.70;;;;;;4991154;28;20456;-76